Time;durP1;ratioP1;P1;durP2;ratioP2;P2;SDS_P1;SDS_P2;PMS_P1;PMS_P2;Temp;Humidity;BMP_temperature;BMP_pressure;BME280_temperature;BME280_humidity;BME280_pressure;Samples;Min_cycle;Max_cycle;Signal;HPM_P1;HPM_P2
2023/07/05 00:01:30;;;;;;;2.22;1.10;;;19.80;99.90;;;;;;5074683;28;20487;-78
2023/07/05 00:03:56;;;;;;;2.28;1.25;;;19.80;99.90;;;;;;5075013;28;20013;-78
2023/07/05 00:06:21;;;;;;;2.63;1.38;;;19.90;99.90;;;;;;5075139;28;20419;-78
2023/07/05 00:08:47;;;;;;;2.80;1.10;;;19.80;99.90;;;;;;5074785;28;20445;-79
2023/07/05 00:11:13;;;;;;;2.40;1.13;;;19.90;99.90;;;;;;5074041;28;20024;-79
2023/07/05 00:13:39;;;;;;;2.95;1.35;;;19.90;99.90;;;;;;5074841;28;20381;-78
2023/07/05 00:16:05;;;;;;;2.03;0.98;;;19.70;99.90;;;;;;5075969;28;20029;-78
2023/07/05 00:18:31;;;;;;;2.33;1.17;;;19.60;99.90;;;;;;5074056;28;20017;-77
2023/07/05 00:21:01;;;;;;;4.32;1.40;;;19.70;99.90;;;;;;5075669;28;20023;-77
2023/07/05 00:23:29;;;;;;;2.42;1.13;;;19.60;99.90;;;;;;5075308;28;20064;-78
2023/07/05 00:25:54;;;;;;;2.65;1.10;;;19.60;99.90;;;;;;5075694;28;20020;-77
2023/07/05 00:28:20;;;;;;;1.85;1.20;;;19.60;99.90;;;;;;5075237;28;20012;-78
2023/07/05 00:30:46;;;;;;;2.95;1.38;;;19.50;99.90;;;;;;5074614;28;20473;-77
2023/07/05 00:33:12;;;;;;;5.22;1.38;;;19.50;99.90;;;;;;5074116;28;20111;-79
2023/07/05 00:35:48;;;;;;;4.15;1.73;;;19.50;99.90;;;;;;5074879;28;20099;-78
2023/07/05 00:38:15;;;;;;;3.40;1.30;;;19.40;99.90;;;;;;5073469;28;20027;-79
2023/07/05 00:40:40;;;;;;;2.10;1.33;;;19.40;99.90;;;;;;5074605;28;20020;-78
2023/07/05 00:43:06;;;;;;;4.93;1.58;;;19.40;99.90;;;;;;5074017;28;20055;-78
2023/07/05 00:45:53;;;;;;;3.92;1.40;;;19.40;99.90;;;;;;5073594;28;20039;-78
2023/07/05 00:48:24;;;;;;;2.20;1.23;;;19.40;99.90;;;;;;5074799;28;20028;-78
2023/07/05 00:50:54;;;;;;;3.65;1.10;;;19.40;99.90;;;;;;5074459;28;20021;-78
2023/07/05 00:53:20;;;;;;;2.15;1.15;;;19.40;99.90;;;;;;5073849;28;20025;-79
2023/07/05 00:55:51;;;;;;;3.92;1.73;;;19.40;99.90;;;;;;5075527;28;20060;-79
2023/07/05 00:58:18;;;;;;;2.88;1.23;;;19.30;99.90;;;;;;5073936;28;20107;-80
2023/07/05 01:00:44;;;;;;;3.40;1.33;;;19.30;99.90;;;;;;5073589;28;20027;-79
2023/07/05 01:03:12;;;;;;;2.80;1.20;;;19.10;99.90;;;;;;5075356;28;20017;-78
2023/07/05 01:05:38;;;;;;;2.72;0.85;;;18.90;99.90;;;;;;5073659;28;20481;-78
2023/07/05 01:08:05;;;;;;;5.50;0.90;;;18.90;99.90;;;;;;5073998;28;20020;-78
2023/07/05 01:10:30;;;;;;;6.05;1.00;;;18.80;99.90;;;;;;5073663;28;20454;-78
2023/07/05 01:13:06;;;;;;;2.72;0.90;;;18.80;99.90;;;;;;5074032;28;20043;-78
2023/07/05 01:15:42;;;;;;;1.92;0.65;;;18.80;99.90;;;;;;5074565;28;20033;-79
2023/07/05 01:18:26;;;;;;;3.88;0.77;;;18.90;99.90;;;;;;5073653;28;20029;-79
2023/07/05 01:21:06;;;;;;;2.67;0.73;;;18.80;99.90;;;;;;5074120;28;20024;-79
2023/07/05 01:23:50;;;;;;;2.63;0.93;;;18.70;99.90;;;;;;5073312;28;20066;-79
2023/07/05 01:26:38;;;;;;;4.82;1.00;;;18.70;99.90;;;;;;5073447;28;20115;-79
2023/07/05 01:29:45;;;;;;;4.32;1.30;;;18.60;99.90;;;;;;5074911;28;20020;-78
2023/07/05 01:32:25;;;;;;;2.67;0.82;;;18.60;99.90;;;;;;5073884;28;20021;-78
2023/07/05 01:35:03;;;;;;;4.78;1.02;;;18.60;99.90;;;;;;5074947;28;20020;-78
2023/07/05 01:37:42;;;;;;;3.72;1.35;;;18.60;99.90;;;;;;5073335;28;20021;-78
2023/07/05 01:40:26;;;;;;;1.88;0.88;;;18.50;99.90;;;;;;5073838;28;20050;-78
2023/07/05 01:42:57;;;;;;;4.55;0.90;;;18.50;99.90;;;;;;5073097;28;20074;-78
2023/07/05 01:45:35;;;;;;;2.25;1.08;;;18.50;99.90;;;;;;5074085;28;20043;-79
2023/07/05 01:48:19;;;;;;;4.55;1.27;;;18.50;99.90;;;;;;5074871;28;20067;-78
2023/07/05 01:51:33;;;;;;;1.88;1.10;;;18.50;99.90;;;;;;5073629;28;20017;-78
2023/07/05 01:54:23;;;;;;;3.40;1.38;;;18.60;99.90;;;;;;5046978;28;20051;-79
2023/07/05 01:57:00;;;;;;;2.67;1.10;;;18.60;99.90;;;;;;5074708;28;20082;-79
2023/07/05 01:59:32;;;;;;;2.10;1.20;;;18.60;99.90;;;;;;5074325;28;20021;-79
2023/07/05 02:01:59;;;;;;;3.58;1.33;;;18.60;99.90;;;;;;5074562;28;20021;-78
2023/07/05 02:04:26;;;;;;;3.42;1.42;;;18.60;99.90;;;;;;5072589;28;20067;-79
2023/07/05 02:06:53;;;;;;;3.63;1.60;;;18.50;99.90;;;;;;5073062;28;20044;-78
2023/07/05 02:09:19;;;;;;;3.22;1.40;;;18.50;99.90;;;;;;5073185;28;20074;-81
2023/07/05 02:11:45;;;;;;;2.25;1.30;;;18.50;99.90;;;;;;5073548;28;20078;-78
2023/07/05 02:14:11;;;;;;;2.75;1.38;;;18.50;99.90;;;;;;5078220;28;20449;-78
2023/07/05 02:16:38;;;;;;;3.47;1.50;;;18.50;99.90;;;;;;5074648;28;20024;-78
2023/07/05 02:19:06;;;;;;;2.85;1.40;;;18.50;99.90;;;;;;5072307;28;20051;-78
2023/07/05 02:21:31;;;;;;;3.13;1.30;;;18.50;99.90;;;;;;5072909;28;20020;-78
2023/07/05 02:23:57;;;;;;;5.00;1.67;;;18.50;99.90;;;;;;5072603;28;20472;-78
2023/07/05 02:26:23;;;;;;;3.28;1.65;;;18.50;99.90;;;;;;5073216;28;20029;-78
2023/07/05 02:28:48;;;;;;;4.78;1.30;;;18.50;99.90;;;;;;5073580;28;20029;-78
2023/07/05 02:31:14;;;;;;;3.20;1.58;;;18.50;99.90;;;;;;5073907;28;20016;-78
2023/07/05 02:33:43;;;;;;;4.75;1.42;;;18.50;99.90;;;;;;5073066;28;20056;-79
2023/07/05 02:36:11;;;;;;;2.78;1.70;;;18.50;99.90;;;;;;5072335;28;20435;-78
2023/07/05 02:38:38;;;;;;;2.45;1.00;;;18.50;99.90;;;;;;5071430;28;20025;-78
2023/07/05 02:41:04;;;;;;;3.33;1.33;;;18.60;99.90;;;;;;5072822;28;20021;-78
2023/07/05 02:43:30;;;;;;;3.53;1.40;;;18.60;99.90;;;;;;5072514;28;20187;-78
2023/07/05 02:45:55;;;;;;;3.10;1.23;;;18.60;99.90;;;;;;5072796;28;20063;-78
2023/07/05 02:48:21;;;;;;;4.55;1.50;;;18.60;99.90;;;;;;5071621;28;20032;-81
2023/07/05 02:50:46;;;;;;;2.03;1.27;;;18.60;99.90;;;;;;5073336;28;20362;-78
2023/07/05 02:53:12;;;;;;;4.72;1.40;;;18.60;99.90;;;;;;5072391;28;20026;-79
2023/07/05 02:55:37;;;;;;;2.20;1.40;;;18.60;99.90;;;;;;5071555;28;20476;-78
2023/07/05 02:58:03;;;;;;;3.75;1.40;;;18.60;99.90;;;;;;5073271;28;20049;-79
2023/07/05 03:00:31;;;;;;;2.47;1.50;;;18.60;99.90;;;;;;5071780;28;20059;-79
2023/07/05 03:02:57;;;;;;;3.22;1.60;;;18.60;99.90;;;;;;5072125;28;20020;-78
2023/07/05 03:05:23;;;;;;;3.25;1.48;;;18.70;99.90;;;;;;5071533;28;20154;-79
2023/07/05 03:07:49;;;;;;;4.10;1.60;;;18.70;99.90;;;;;;5072084;28;20035;-79
2023/07/05 03:10:14;;;;;;;3.67;1.40;;;18.70;99.90;;;;;;5071753;28;20029;-79
2023/07/05 03:12:40;;;;;;;2.95;1.63;;;18.70;99.90;;;;;;5071460;28;20031;-79
2023/07/05 03:15:06;;;;;;;3.92;1.48;;;18.60;99.90;;;;;;5071852;28;20453;-78
2023/07/05 03:17:33;;;;;;;4.70;1.42;;;18.70;99.90;;;;;;5070947;28;20020;-78
2023/07/05 03:19:59;;;;;;;2.00;1.45;;;18.70;99.90;;;;;;5072002;28;20036;-79
2023/07/05 03:22:26;;;;;;;2.97;1.40;;;18.70;99.90;;;;;;5072532;28;20392;-79
2023/07/05 03:24:52;;;;;;;3.95;1.60;;;18.70;99.90;;;;;;5074040;28;20094;-79
2023/07/05 03:27:18;;;;;;;2.33;1.38;;;18.70;99.90;;;;;;5076101;28;20414;-79
2023/07/05 03:29:44;;;;;;;2.60;1.35;;;18.70;99.90;;;;;;5075315;28;20036;-79
2023/07/05 03:32:09;;;;;;;4.38;1.30;;;18.80;99.90;;;;;;5077558;28;20357;-79
2023/07/05 03:34:35;;;;;;;3.10;1.50;;;18.80;99.90;;;;;;5076327;28;20024;-79
2023/07/05 03:37:01;;;;;;;3.92;1.65;;;18.80;99.90;;;;;;5075691;28;20024;-79
2023/07/05 03:39:27;;;;;;;3.17;1.33;;;18.80;99.90;;;;;;5076322;28;20056;-78
2023/07/05 03:41:52;;;;;;;3.92;1.35;;;18.80;99.90;;;;;;5075347;28;20105;-78
2023/07/05 03:44:21;;;;;;;1.42;1.15;;;18.80;99.90;;;;;;5075482;28;20457;-78
2023/07/05 03:46:48;;;;;;;2.08;1.17;;;18.80;99.90;;;;;;5076609;28;20038;-77
2023/07/05 03:49:15;;;;;;;2.67;1.58;;;18.80;99.90;;;;;;5076754;28;20105;-78
2023/07/05 03:51:41;;;;;;;2.60;1.02;;;18.90;99.90;;;;;;5075364;28;20825;-77
2023/07/05 03:54:06;;;;;;;4.95;1.40;;;18.90;99.90;;;;;;5075687;28;20025;-77
2023/07/05 03:56:33;;;;;;;2.80;1.23;;;18.90;99.90;;;;;;5076496;28;20027;-78
2023/07/05 03:58:59;;;;;;;2.00;1.30;;;18.90;99.90;;;;;;5076715;28;20345;-77
2023/07/05 04:01:26;;;;;;;4.47;1.50;;;18.90;99.90;;;;;;5075313;28;20024;-80
2023/07/05 04:03:55;;;;;;;2.00;1.13;;;18.90;99.90;;;;;;5075443;28;20112;-77
2023/07/05 04:06:22;;;;;;;4.85;1.52;;;19.00;99.90;;;;;;5076691;28;20457;-77
2023/07/05 04:08:48;;;;;;;2.85;1.23;;;19.00;99.90;;;;;;5075127;28;20036;-77
2023/07/05 04:11:14;;;;;;;2.83;1.40;;;19.00;99.90;;;;;;5075377;28;20021;-78
2023/07/05 04:13:40;;;;;;;2.00;1.23;;;19.00;99.90;;;;;;5076097;28;20028;-78
2023/07/05 04:16:10;;;;;;;2.92;1.40;;;19.10;99.90;;;;;;5075522;28;20028;-78
2023/07/05 04:18:36;;;;;;;4.60;1.40;;;19.00;99.90;;;;;;5074796;28;20454;-77
2023/07/05 04:21:02;;;;;;;1.80;1.10;;;19.00;99.90;;;;;;5075169;28;20016;-78
2023/07/05 04:23:28;;;;;;;3.50;1.20;;;19.00;99.90;;;;;;5074825;28;20030;-78
2023/07/05 04:26:09;;;;;;;3.47;1.27;;;19.00;99.90;;;;;;5075296;28;20024;-77
2023/07/05 04:28:36;;;;;;;2.38;1.30;;;19.00;99.90;;;;;;5074687;28;20052;-78
2023/07/05 04:31:02;;;;;;;3.53;1.40;;;19.10;99.90;;;;;;5075121;28;20028;-78
2023/07/05 04:33:28;;;;;;;3.28;1.25;;;19.10;99.90;;;;;;5075956;28;20033;-79
2023/07/05 04:35:59;;;;;;;3.83;1.15;;;19.10;99.90;;;;;;5074457;28;20366;-76
2023/07/05 04:38:25;;;;;;;4.15;1.33;;;19.10;99.90;;;;;;5074254;28;20028;-77
2023/07/05 04:40:51;;;;;;;2.33;1.35;;;19.10;99.90;;;;;;5074276;28;20028;-76
2023/07/05 04:43:17;;;;;;;3.97;1.88;;;19.20;99.90;;;;;;5073935;28;20056;-76
2023/07/05 04:45:50;;;;;;;7.03;1.92;;;19.20;99.90;;;;;;5074652;28;20036;-77
2023/07/05 04:48:18;;;;;;;5.88;1.58;;;19.00;99.90;;;;;;5073897;28;20453;-77
2023/07/05 04:50:47;;;;;;;2.25;1.23;;;18.50;99.90;;;;;;5073167;28;20052;-76
2023/07/05 04:53:13;;;;;;;4.88;1.52;;;18.20;99.90;;;;;;5073984;28;20460;-76
2023/07/05 04:55:44;;;;;;;2.30;1.20;;;18.10;99.90;;;;;;5073489;28;20100;-76
2023/07/05 04:58:11;;;;;;;2.38;1.30;;;18.00;99.90;;;;;;5075378;28;20052;-76
2023/07/05 05:00:36;;;;;;;2.53;1.02;;;18.00;99.90;;;;;;5075026;28;20024;-76
2023/07/05 05:03:03;;;;;;;2.72;1.00;;;17.90;99.90;;;;;;5074105;28;20020;-76
2023/07/05 05:05:28;;;;;;;2.75;1.15;;;17.90;99.90;;;;;;5074730;28;20461;-78
2023/07/05 05:07:54;;;;;;;4.40;1.50;;;18.00;99.90;;;;;;5073808;28;20024;-76
2023/07/05 05:10:20;;;;;;;1.65;1.05;;;18.00;99.90;;;;;;5073847;28;20052;-76
2023/07/05 05:12:45;;;;;;;3.05;1.55;;;18.10;99.90;;;;;;5072910;28;20043;-76
2023/07/05 05:15:11;;;;;;;2.70;1.20;;;18.10;99.90;;;;;;5075071;28;20115;-76
2023/07/05 05:17:37;;;;;;;2.78;1.02;;;18.10;99.90;;;;;;5073430;28;20021;-76
2023/07/05 05:20:03;;;;;;;2.72;1.20;;;18.10;99.90;;;;;;5074959;28;20103;-76
2023/07/05 05:22:29;;;;;;;4.18;1.33;;;18.20;99.90;;;;;;5073340;28;20671;-80
2023/07/05 05:24:55;;;;;;;4.85;1.38;;;18.20;99.90;;;;;;5074938;28;20028;-76
2023/07/05 05:27:20;;;;;;;2.03;1.17;;;18.20;99.90;;;;;;5072829;28;20044;-77
2023/07/05 05:29:46;;;;;;;1.58;1.00;;;18.20;99.90;;;;;;5072661;28;20032;-77
2023/07/05 05:32:11;;;;;;;2.45;1.30;;;18.20;99.90;;;;;;5077948;28;20077;-76
2023/07/05 05:34:37;;;;;;;3.80;1.25;;;18.20;99.90;;;;;;5081964;28;20078;-77
2023/07/05 05:37:03;;;;;;;2.25;1.20;;;18.20;99.90;;;;;;5075545;28;20028;-77
2023/07/05 05:39:28;;;;;;;3.08;1.17;;;18.20;99.90;;;;;;5074236;28;20036;-79
2023/07/05 05:41:54;;;;;;;1.70;1.13;;;18.30;99.90;;;;;;5073949;28;20055;-77
2023/07/05 05:44:20;;;;;;;2.05;1.05;;;18.30;99.90;;;;;;5073600;28;20073;-77
2023/07/05 05:46:45;;;;;;;3.08;1.30;;;18.30;99.90;;;;;;5072465;28;20620;-78
2023/07/05 05:49:11;;;;;;;2.25;1.23;;;18.40;99.90;;;;;;5073396;28;20065;-78
2023/07/05 05:51:36;;;;;;;3.03;1.17;;;18.50;99.90;;;;;;5073016;28;20111;-78
2023/07/05 05:54:02;;;;;;;2.75;1.17;;;18.60;99.90;;;;;;5074415;28;20024;-77
2023/07/05 05:56:27;;;;;;;2.97;1.30;;;18.70;99.90;;;;;;5073169;28;20365;-76
2023/07/05 05:58:53;;;;;;;1.88;1.15;;;18.70;99.90;;;;;;5073871;28;20428;-77
2023/07/05 06:01:19;;;;;;;4.13;1.20;;;18.70;99.90;;;;;;5073154;28;20020;-77
2023/07/05 06:03:46;;;;;;;3.67;1.17;;;18.60;99.90;;;;;;5072558;28;20027;-77
2023/07/05 06:06:11;;;;;;;2.75;1.08;;;18.60;99.90;;;;;;5072969;28;20078;-77
2023/07/05 06:08:37;;;;;;;1.83;0.95;;;18.50;99.90;;;;;;5072254;28;20017;-77
2023/07/05 06:11:04;;;;;;;1.55;1.08;;;18.40;99.90;;;;;;5074070;28;20028;-77
2023/07/05 06:13:30;;;;;;;3.15;1.10;;;18.30;99.90;;;;;;5072380;28;20059;-79
2023/07/05 06:15:58;;;;;;;1.70;0.90;;;18.40;99.90;;;;;;5072166;28;20112;-78
2023/07/05 06:18:25;;;;;;;1.60;0.80;;;18.30;99.90;;;;;;5072626;28;20021;-77
2023/07/05 06:20:51;;;;;;;1.70;1.10;;;18.40;99.90;;;;;;5073013;28;20021;-78
2023/07/05 06:23:17;;;;;;;4.45;1.35;;;18.40;99.90;;;;;;5073659;28;20021;-77
2023/07/05 06:25:47;;;;;;;1.70;1.00;;;18.50;99.90;;;;;;5071836;28;20123;-78
2023/07/05 06:28:17;;;;;;;2.15;1.10;;;18.50;99.90;;;;;;5072763;28;20198;-77
2023/07/05 06:30:44;;;;;;;1.85;1.00;;;18.40;99.90;;;;;;5072044;28;20040;-78
2023/07/05 06:33:09;;;;;;;2.38;1.17;;;18.30;99.90;;;;;;5073330;28;20035;-77
2023/07/05 06:35:35;;;;;;;3.97;1.40;;;18.40;99.90;;;;;;5071654;28;20373;-78
2023/07/05 06:38:01;;;;;;;3.00;1.15;;;18.40;99.90;;;;;;5071963;28;20346;-77
2023/07/05 06:40:26;;;;;;;2.58;1.15;;;18.50;99.90;;;;;;5072863;28;20024;-77
2023/07/05 06:42:52;;;;;;;2.83;1.33;;;18.50;99.90;;;;;;5071141;28;20044;-77
2023/07/05 06:45:18;;;;;;;4.10;1.33;;;18.60;99.90;;;;;;5072231;28;20040;-77
2023/07/05 06:47:45;;;;;;;4.20;1.50;;;18.60;99.90;;;;;;5073136;28;20028;-77
2023/07/05 06:50:12;;;;;;;3.17;1.60;;;18.60;99.90;;;;;;5073300;28;20114;-77
2023/07/05 06:52:38;;;;;;;2.85;1.48;;;18.70;99.90;;;;;;5071824;28;20032;-78
2023/07/05 06:55:05;;;;;;;2.33;1.48;;;18.60;99.90;;;;;;5072267;28;20051;-77
2023/07/05 06:57:31;;;;;;;2.40;1.50;;;18.60;99.90;;;;;;5072161;28;20016;-77
2023/07/05 06:59:56;;;;;;;3.38;1.70;;;18.60;99.90;;;;;;5070695;28;20036;-77
2023/07/05 07:02:22;;;;;;;4.45;1.83;;;18.60;99.90;;;;;;5072958;28;20446;-77
2023/07/05 07:04:48;;;;;;;3.78;1.63;;;18.40;99.90;;;;;;5070885;28;20454;-77
2023/07/05 07:07:13;;;;;;;4.13;2.17;;;18.30;99.90;;;;;;5071354;28;20039;-77
2023/07/05 07:09:40;;;;;;;4.95;2.10;;;18.30;99.90;;;;;;5072670;28;20077;-77
2023/07/05 07:12:07;;;;;;;4.38;2.20;;;18.20;99.90;;;;;;5071909;28;20066;-77
2023/07/05 07:14:33;;;;;;;3.92;2.00;;;18.20;99.90;;;;;;5073397;28;20036;-77
2023/07/05 07:16:59;;;;;;;4.80;2.03;;;18.20;99.90;;;;;;5071681;28;20111;-78
2023/07/05 07:19:25;;;;;;;6.18;2.13;;;18.20;99.90;;;;;;5071967;28;20119;-77
2023/07/05 07:21:51;;;;;;;4.18;2.47;;;18.30;99.90;;;;;;5071182;28;20115;-77
2023/07/05 07:24:16;;;;;;;5.32;2.08;;;18.30;99.90;;;;;;5071327;28;20024;-76
2023/07/05 07:26:42;;;;;;;5.05;2.50;;;18.30;99.90;;;;;;5071464;28;20449;-77
2023/07/05 07:29:08;;;;;;;4.78;2.30;;;18.40;99.90;;;;;;5071786;28;20031;-77
2023/07/05 07:31:34;;;;;;;3.80;2.60;;;18.40;99.90;;;;;;5070851;28;20377;-78
2023/07/05 07:34:01;;;;;;;4.53;2.50;;;18.50;99.90;;;;;;5070827;28;20024;-76
2023/07/05 07:36:29;;;;;;;4.47;2.10;;;18.40;99.90;;;;;;5072569;28;20020;-77
2023/07/05 07:38:56;;;;;;;4.25;2.50;;;18.30;99.90;;;;;;5071256;28;20032;-76
2023/07/05 07:41:26;;;;;;;5.75;2.30;;;18.30;99.90;;;;;;5071355;28;20073;-78
2023/07/05 07:43:54;;;;;;;4.22;2.40;;;18.30;99.90;;;;;;5071347;28;20067;-78
2023/07/05 07:46:24;;;;;;;4.68;2.40;;;18.20;99.90;;;;;;5071525;28;20081;-77
2023/07/05 07:48:52;;;;;;;3.72;2.42;;;18.10;99.90;;;;;;5071010;28;20454;-78
2023/07/05 07:51:19;;;;;;;5.43;2.95;;;18.20;99.90;;;;;;5071228;28;20545;-77
2023/07/05 07:53:45;;;;;;;5.03;2.60;;;18.10;99.90;;;;;;5070898;28;20437;-77
2023/07/05 07:56:16;;;;;;;4.60;2.60;;;18.20;99.90;;;;;;5072192;28;20024;-77
2023/07/05 07:58:44;;;;;;;7.00;3.60;;;18.20;99.90;;;;;;5070606;28;20024;-77
2023/07/05 08:01:15;;;;;;;6.75;2.45;;;18.30;99.90;;;;;;5070876;28;20453;-78
2023/07/05 08:03:41;;;;;;;5.78;2.78;;;18.30;99.90;;;;;;5072518;28;20445;-78
2023/07/05 08:06:07;;;;;;;6.13;2.75;;;18.20;99.90;;;;;;5071099;28;20493;-77
2023/07/05 08:08:33;;;;;;;6.28;2.47;;;18.20;99.90;;;;;;5070692;28;20017;-77
2023/07/05 08:10:59;;;;;;;4.25;2.40;;;18.10;99.90;;;;;;5071549;28;20016;-77
2023/07/05 08:13:25;;;;;;;4.07;2.50;;;18.10;99.90;;;;;;5075837;28;20098;-78
2023/07/05 08:15:50;;;;;;;4.35;2.75;;;18.10;99.90;;;;;;5073967;28;20403;-77
2023/07/05 08:18:17;;;;;;;7.30;2.90;;;18.20;99.90;;;;;;5074667;28;20016;-77
2023/07/05 08:20:43;;;;;;;4.28;2.60;;;18.20;99.90;;;;;;5073634;28;20016;-78
2023/07/05 08:23:09;;;;;;;4.22;2.47;;;18.30;99.90;;;;;;5074351;28;20044;-77
2023/07/05 08:25:37;;;;;;;3.55;2.30;;;18.40;99.90;;;;;;5074481;28;20056;-78
2023/07/05 08:28:02;;;;;;;4.68;2.22;;;18.40;99.90;;;;;;5075064;28;20020;-77
2023/07/05 08:30:28;;;;;;;5.75;1.88;;;18.50;99.90;;;;;;5074668;28;20381;-77
2023/07/05 08:32:54;;;;;;;3.45;2.10;;;18.50;99.90;;;;;;5075231;28;20039;-78
2023/07/05 08:35:19;;;;;;;4.45;2.50;;;18.50;99.90;;;;;;5074343;28;20028;-78
2023/07/05 08:37:48;;;;;;;3.80;2.20;;;18.60;99.90;;;;;;5073880;28;20021;-78
2023/07/05 08:40:15;;;;;;;4.25;2.08;;;18.70;99.90;;;;;;5074131;28;20024;-78
2023/07/05 08:43:11;;;;;;;3.30;1.85;;;18.80;99.90;;;;;;5073771;28;20093;-79
2023/07/05 08:45:45;;;;;;;3.95;2.28;;;18.80;99.90;;;;;;5074129;28;20082;-78
2023/07/05 08:48:15;;;;;;;5.03;1.98;;;18.80;99.90;;;;;;5072467;28;20074;-78
2023/07/05 08:50:44;;;;;;;4.40;2.00;;;18.80;99.90;;;;;;5069861;28;20436;-79
2023/07/05 08:53:11;;;;;;;4.18;2.10;;;18.90;99.90;;;;;;5089526;28;20020;-79
2023/07/05 08:55:43;;;;;;;3.50;2.10;;;18.90;99.90;;;;;;5074875;28;20033;-83
2023/07/05 08:58:10;;;;;;;3.92;2.00;;;18.90;99.90;;;;;;5087089;28;20032;-87
2023/07/05 09:00:45;;;;;;;4.47;2.10;;;19.10;99.90;;;;;;5080971;28;20024;-78
2023/07/05 09:03:13;;;;;;;5.97;2.03;;;19.10;99.90;;;;;;5073831;28;20016;-78
2023/07/05 09:05:48;;;;;;;4.20;1.92;;;19.00;99.90;;;;;;5093723;28;20028;-84
2023/07/05 09:08:35;;;;;;;3.20;2.03;;;19.00;99.90;;;;;;5086549;28;20055;-80
2023/07/05 09:11:17;;;;;;;3.22;1.73;;;19.00;99.90;;;;;;5074943;28;20031;-79
2023/07/05 09:13:43;;;;;;;6.47;3.58;;;18.90;99.90;;;;;;5092799;28;20024;-79
2023/07/05 09:16:32;;;;;;;3.75;2.05;;;18.90;99.90;;;;;;5089084;28;20435;-79
2023/07/05 09:19:16;;;;;;;4.75;1.90;;;18.80;99.90;;;;;;5068478;28;20020;-82
2023/07/05 09:21:53;;;;;;;4.15;2.20;;;18.90;99.90;;;;;;5085231;28;20046;-84
2023/07/05 09:24:24;;;;;;;3.22;1.88;;;19.00;99.90;;;;;;5083003;28;20034;-81
2023/07/05 09:26:58;;;;;;;7.32;2.08;;;19.10;99.90;;;;;;5084673;28;20457;-82
2023/07/05 09:29:30;;;;;;;3.53;1.70;;;19.20;99.60;;;;;;5083795;28;20028;-81
2023/07/05 09:31:58;;;;;;;5.05;1.80;;;19.20;99.60;;;;;;5061781;28;20432;-81
2023/07/05 09:34:39;;;;;;;4.57;1.90;;;19.30;99.60;;;;;;5077952;28;20017;-80
2023/07/05 09:37:41;;;;;;;3.75;2.15;;;19.30;98.70;;;;;;5094121;28;20020;-80
2023/07/05 09:40:19;;;;;;;7.43;2.13;;;19.50;98.70;;;;;;5084587;28;20028;-80
2023/07/05 09:42:55;;;;;;;4.82;1.92;;;19.40;98.90;;;;;;5061559;28;20047;-80
2023/07/05 09:45:21;;;;;;;3.33;1.50;;;19.40;98.90;;;;;;5078621;28;20477;-80
2023/07/05 09:47:50;;;;;;;2.63;1.40;;;19.40;96.90;;;;;;5090351;28;20029;-79
2023/07/05 09:50:20;;;;;;;3.03;1.30;;;19.40;96.10;;;;;;5072165;28;20024;-80
2023/07/05 09:52:49;;;;;;;2.85;1.58;;;19.50;95.90;;;;;;5074138;28;20028;-80
2023/07/05 09:55:16;;;;;;;3.17;1.33;;;19.60;95.00;;;;;;5089407;28;20024;-80
2023/07/05 09:57:42;;;;;;;3.92;1.60;;;19.60;94.80;;;;;;5083973;28;20035;-81
2023/07/05 10:01:04;;;;;;;;;;;;;;;;;;;;;
2023/07/05 10:03:57;;;;;;;;;;;19.50;95.40;;;;;;5074548;28;20024;-80
2023/07/05 10:06:27;;;;;;;4.80;1.50;;;19.60;94.60;;;;;;5088421;28;19943;-79
2023/07/05 10:08:55;;;;;;;2.70;1.38;;;19.60;94.20;;;;;;5081690;28;20050;-81
2023/07/05 10:11:26;;;;;;;1.85;1.23;;;19.50;94.00;;;;;;5072725;28;20519;-80
2023/07/05 10:14:05;;;;;;;3.47;1.48;;;19.50;94.30;;;;;;5072351;28;20024;-80
2023/07/05 10:16:54;;;;;;;3.22;1.27;;;19.50;94.00;;;;;;5084044;28;20097;-80
2023/07/05 10:19:30;;;;;;;4.90;1.48;;;19.50;94.60;;;;;;5082878;28;20020;-80
2023/07/05 10:22:37;;;;;;;2.75;1.30;;;19.50;94.70;;;;;;5077771;28;20095;-81
2023/07/05 10:25:13;;;;;;;3.50;1.45;;;19.50;94.00;;;;;;5014870;28;20113;-77
2023/07/05 10:27:43;;;;;;;1.73;1.20;;;19.50;94.20;;;;;;5024830;28;20021;-78
2023/07/05 10:30:13;;;;;;;4.90;1.73;;;19.50;94.00;;;;;;5014492;28;20159;-79
2023/07/05 10:32:39;;;;;;;3.78;1.30;;;19.50;94.10;;;;;;5034410;28;20060;-80
2023/07/05 10:35:26;;;;;;;2.90;1.20;;;19.60;93.10;;;;;;5034585;28;20041;-79
2023/07/05 10:37:53;;;;;;;8.50;1.30;;;19.60;93.40;;;;;;5047942;28;20017;-80
2023/07/05 10:40:20;;;;;;;4.75;3.35;;;19.60;93.00;;;;;;5033289;28;20022;-81
2023/07/05 10:43:08;;;;;;;2.53;1.63;;;19.70;92.70;;;;;;5037172;28;20080;-83
2023/07/05 10:45:34;;;;;;;1.90;1.10;;;19.70;93.20;;;;;;5033751;28;20045;-83
2023/07/05 10:48:01;;;;;;;3.05;0.98;;;19.80;92.30;;;;;;5024211;28;20029;-78
2023/07/05 10:50:32;;;;;;;5.88;1.50;;;19.80;91.20;;;;;;5022872;28;20355;-78
2023/07/05 10:53:04;;;;;;;2.60;1.30;;;19.80;91.30;;;;;;5013713;28;20021;-76
2023/07/05 10:55:45;;;;;;;3.45;1.20;;;19.80;90.50;;;;;;5027526;28;20425;-75
2023/07/05 10:58:16;;;;;;;3.47;1.10;;;19.90;91.00;;;;;;5059762;28;20025;-76
2023/07/05 11:00:56;;;;;;;2.25;1.20;;;19.90;90.70;;;;;;5064966;28;20017;-76
2023/07/05 11:03:29;;;;;;;1.52;1.10;;;20.00;90.60;;;;;;5068375;28;20040;-76
2023/07/05 11:05:58;;;;;;;4.35;1.40;;;20.00;90.60;;;;;;5074353;28;20090;-76
2023/07/05 11:08:41;;;;;;;2.67;1.30;;;20.10;90.60;;;;;;5073148;28;20334;-77
2023/07/05 11:11:22;;;;;;;3.33;1.70;;;20.10;90.50;;;;;;5072535;28;20101;-76
2023/07/05 11:13:49;;;;;;;4.55;1.80;;;20.20;91.10;;;;;;5056827;28;20036;-79
2023/07/05 11:16:18;;;;;;;3.78;1.55;;;20.30;90.90;;;;;;5065413;28;20119;-79
2023/07/05 11:18:44;;;;;;;3.72;1.45;;;20.20;90.80;;;;;;5052103;28;20024;-77
2023/07/05 11:21:32;;;;;;;4.18;1.20;;;20.30;91.10;;;;;;5051557;28;20021;-76
2023/07/05 11:23:58;;;;;;;4.13;1.40;;;20.50;91.30;;;;;;5043390;28;20029;-81
2023/07/05 11:26:36;;;;;;;4.63;1.70;;;20.60;90.70;;;;;;5051175;28;20031;-79
2023/07/05 11:29:25;;;;;;;2.95;1.33;;;20.60;90.50;;;;;;5064415;28;20059;-79
2023/07/05 11:31:54;;;;;;;6.10;1.70;;;20.50;90.30;;;;;;5041263;28;20020;-79
2023/07/05 11:34:25;;;;;;;2.42;1.40;;;20.60;89.60;;;;;;5064145;28;20029;-79
2023/07/05 11:37:01;;;;;;;3.88;1.38;;;20.60;89.40;;;;;;5053131;28;20450;-79
2023/07/05 11:39:41;;;;;;;2.25;1.25;;;20.60;88.00;;;;;;5055266;28;20029;-78
2023/07/05 11:42:16;;;;;;;3.58;1.10;;;20.60;86.10;;;;;;5050491;28;20497;-79
2023/07/05 11:44:49;;;;;;;4.05;1.42;;;20.50;85.80;;;;;;5081241;28;20040;-80
2023/07/05 11:47:23;;;;;;;3.63;1.10;;;20.50;86.70;;;;;;5078812;28;20073;-80
2023/07/05 11:49:52;;;;;;;2.55;1.40;;;20.60;85.50;;;;;;5080858;28;20024;-79
2023/07/05 11:52:32;;;;;;;2.72;1.10;;;20.60;85.20;;;;;;5079133;28;20047;-80
2023/07/05 11:55:06;;;;;;;1.63;1.13;;;20.60;86.20;;;;;;5071613;28;20462;-79
2023/07/05 11:57:43;;;;;;;2.17;1.08;;;20.60;85.80;;;;;;5078651;28;20016;-79
2023/07/05 12:00:40;;;;;;;2.03;1.05;;;20.80;87.60;;;;;;5080963;28;20039;-77
2023/07/05 12:03:24;;;;;;;2.35;1.30;;;21.00;84.40;;;;;;5079113;28;20032;-77
2023/07/05 12:06:02;;;;;;;2.80;1.10;;;21.10;84.50;;;;;;5073820;28;20032;-78
2023/07/05 12:08:38;;;;;;;2.85;1.40;;;21.10;81.80;;;;;;5075969;28;20017;-76
2023/07/05 12:11:04;;;;;;;3.95;1.30;;;21.10;80.90;;;;;;5083755;28;20518;-77
2023/07/05 12:13:32;;;;;;;2.58;1.27;;;21.30;80.70;;;;;;5080497;28;20025;-77
2023/07/05 12:15:58;;;;;;;3.83;1.17;;;21.30;82.20;;;;;;5088501;28;20024;-77
2023/07/05 12:18:27;;;;;;;3.22;1.17;;;21.30;81.10;;;;;;5076179;28;20036;-77
2023/07/05 12:20:54;;;;;;;1.80;1.10;;;21.30;81.20;;;;;;5074281;28;20023;-77
2023/07/05 12:23:23;;;;;;;2.75;1.30;;;21.40;82.00;;;;;;5074774;28;20047;-77
2023/07/05 12:25:53;;;;;;;1.50;1.00;;;21.50;83.00;;;;;;5076605;28;20035;-77
2023/07/05 12:28:32;;;;;;;2.08;1.20;;;21.60;82.40;;;;;;5094577;28;20496;-76
2023/07/05 12:31:09;;;;;;;2.95;1.30;;;21.80;80.30;;;;;;5081152;28;20020;-77
2023/07/05 12:33:36;;;;;;;2.85;1.20;;;21.90;80.40;;;;;;5092209;28;20024;-78
2023/07/05 12:36:09;;;;;;;3.40;1.45;;;21.80;80.40;;;;;;5095523;28;20028;-77
2023/07/05 12:38:35;;;;;;;2.40;1.10;;;21.90;80.50;;;;;;5094555;28;20051;-77
2023/07/05 12:41:03;;;;;;;1.60;1.10;;;21.70;79.40;;;;;;5078555;28;20036;-80
2023/07/05 12:43:32;;;;;;;3.15;1.20;;;21.80;80.90;;;;;;5077206;28;20041;-79
2023/07/05 12:46:21;;;;;;;5.95;1.20;;;22.00;79.20;;;;;;5077559;28;20035;-78
2023/07/05 12:48:50;;;;;;;2.20;1.02;;;22.50;76.10;;;;;;5083714;28;20452;-79
2023/07/05 12:51:21;;;;;;;4.22;1.55;;;22.70;76.90;;;;;;5073755;28;20016;-78
2023/07/05 12:53:51;;;;;;;;;;;22.80;76.40;;;;;;5087103;28;20048;-80
2023/07/05 12:56:21;;;;;;;2.63;0.95;;;22.70;75.80;;;;;;5080945;28;19904;-77
2023/07/05 12:58:58;;;;;;;3.67;1.27;;;22.80;76.30;;;;;;5091823;28;20461;-78
2023/07/05 13:01:30;;;;;;;2.90;1.10;;;22.90;76.20;;;;;;5078701;28;20031;-77
2023/07/05 13:03:55;;;;;;;1.90;0.77;;;22.90;74.90;;;;;;5088130;28;20103;-78